MSC Heidi — 3EHC4 — position and weather

sailwx.info

Track history (hours):
 
Tides and Currents Weather Stations Pressure Air Temp Water Temp Dewpoint Dewpoint Depression Visibility Wind Speed Wind Dir Waves Ship Positions

MSC Heidi

Last reported at 2018-Feb-25 12:57 UTC. Time now 2018-Feb-25 13:30 UTC.
Position N 21°05' E 072°38'.

Length 332 m; draft 13 m.

Type: Ship (hazmat cat D). MMSI: 372008000.

Date/timePositionNaut miles runAvg speedWind from/ knotsBaromVisibWave heightAir tempDewpointWater temp
2018-Feb-25 12:57N 21°05' E 072°38'0 0.0
2018-Feb-25 12:27N 21°05' E 072°38'0 0.0
2018-Feb-25 11:56N 21°05' E 072°38'0 0.0
2018-Feb-25 11:26N 21°05' E 072°38'0 0.0
2018-Feb-25 10:56N 21°05' E 072°38'0 0.0
2018-Feb-25 10:26N 21°05' E 072°38'0 0.0
2018-Feb-25 09:56N 21°05' E 072°38'0 0.0
2018-Feb-25 09:26N 21°05' E 072°38'0 0.0
2018-Feb-25 08:56N 21°05' E 072°38'0 0.0
2018-Feb-25 08:26N 21°05' E 072°38'0 0.0
2018-Feb-25 07:56N 21°05' E 072°38'0 0.0
2018-Feb-25 07:26N 21°05' E 072°38'0 0.7
2018-Feb-25 07:00N 21°05' E 072°37'2 3.5
2018-Feb-25 06:30N 21°05' E 072°36'3 5.8
2018-Feb-25 06:00N 21°02' E 072°35'2 3.8
2018-Feb-25 05:30N 21°00' E 072°35'2 3.7
2018-Feb-25 05:00N 20°58' E 072°34'4 8.1
2018-Feb-25 04:30N 20°54' E 072°33'4 8.0
2018-Feb-25 04:00N 20°50' E 072°32'4 8.1
2018-Feb-25 03:28N 20°46' E 072°31'4 8.3
2018-Feb-25 03:00N 20°43' E 072°30'4 8.4
2018-Feb-25 02:30N 20°38' E 072°29'4 8.0
2018-Feb-25 02:00N 20°35' E 072°28'4 8.4
2018-Feb-25 01:30N 20°31' E 072°27'510.8
2018-Feb-25 01:00N 20°25' E 072°25'510.8
2018-Feb-25 00:30N 20°20' E 072°24'510.0
2018-Feb-25 00:00N 20°15' E 072°24'1010.2
2018-Feb-24 23:01N 20°05' E 072°22'0 9.8
2018-Feb-24 23:00N 20°05' E 072°22'5 9.9
2018-Feb-24 22:30N 20°00' E 072°21'  
Track history (hours):
 
Tides and Currents Weather Stations Pressure Air Temp Water Temp Dewpoint Dewpoint Depression Visibility Wind Speed Wind Dir Waves Ship Positions

MSC Heidi

Last reported at 2018-Feb-25 12:57 UTC. Time now 2018-Feb-25 13:30 UTC.
Position N 21°05' E 072°38'.

Length 332 m; draft 13 m.

Type: Ship (hazmat cat D). MMSI: 372008000.

Date/timePositionNaut miles runAvg speedWind from/ knotsBaromVisibWave heightAir tempDewpointWater temp
2018-Feb-25 12:57N 21°05' E 072°38'0 0.0
2018-Feb-25 12:27N 21°05' E 072°38'0 0.0
2018-Feb-25 11:56N 21°05' E 072°38'0 0.0
2018-Feb-25 11:26N 21°05' E 072°38'0 0.0
2018-Feb-25 10:56N 21°05' E 072°38'0 0.0
2018-Feb-25 10:26N 21°05' E 072°38'0 0.0
2018-Feb-25 09:56N 21°05' E 072°38'0 0.0
2018-Feb-25 09:26N 21°05' E 072°38'0 0.0
2018-Feb-25 08:56N 21°05' E 072°38'0 0.0
2018-Feb-25 08:26N 21°05' E 072°38'0 0.0
2018-Feb-25 07:56N 21°05' E 072°38'0 0.0
2018-Feb-25 07:26N 21°05' E 072°38'0 0.7
2018-Feb-25 07:00N 21°05' E 072°37'2 3.5
2018-Feb-25 06:30N 21°05' E 072°36'3 5.8
2018-Feb-25 06:00N 21°02' E 072°35'2 3.8
2018-Feb-25 05:30N 21°00' E 072°35'2 3.7
2018-Feb-25 05:00N 20°58' E 072°34'4 8.1
2018-Feb-25 04:30N 20°54' E 072°33'4 8.0
2018-Feb-25 04:00N 20°50' E 072°32'4 8.1
2018-Feb-25 03:28N 20°46' E 072°31'4 8.3
2018-Feb-25 03:00N 20°43' E 072°30'4 8.4
2018-Feb-25 02:30N 20°38' E 072°29'4 8.0
2018-Feb-25 02:00N 20°35' E 072°28'4 8.4
2018-Feb-25 01:30N 20°31' E 072°27'510.8
2018-Feb-25 01:00N 20°25' E 072°25'510.8
2018-Feb-25 00:30N 20°20' E 072°24'510.0
2018-Feb-25 00:00N 20°15' E 072°24'1010.2
2018-Feb-24 23:01N 20°05' E 072°22'0 9.8
2018-Feb-24 23:00N 20°05' E 072°22'5 9.9
2018-Feb-24 22:30N 20°00' E 072°21'  

Dump ship's entire track history